sensor_id;sensor_type;location;lat;lon;timestamp;pressure;altitude;pressure_sealevel;temperature;humidity
37764;BME280;23602;51.084;7.090;2023-05-09T00:01:38;100514.50;;;13.70;100.00
37764;BME280;23602;51.084;7.090;2023-05-09T00:04:14;100516.38;;;13.69;100.00
37764;BME280;23602;51.084;7.090;2023-05-09T00:06:49;100509.91;;;13.70;100.00
37764;BME280;23602;51.084;7.090;2023-05-09T00:12:06;100498.31;;;13.70;100.00
37764;BME280;23602;51.084;7.090;2023-05-09T00:14:41;100492.28;;;13.68;100.00
37764;BME280;23602;51.084;7.090;2023-05-09T00:17:12;100507.69;;;13.67;100.00
37764;BME280;23602;51.084;7.090;2023-05-09T00:19:38;100501.66;;;13.65;100.00
37764;BME280;23602;51.084;7.090;2023-05-09T00:22:10;100497.25;;;13.71;100.00
37764;BME280;23602;51.084;7.090;2023-05-09T00:24:38;100492.44;;;13.73;100.00
37764;BME280;23602;51.084;7.090;2023-05-09T00:27:06;100481.88;;;13.71;100.00
37764;BME280;23602;51.084;7.090;2023-05-09T00:29:49;100475.63;;;13.71;100.00
37764;BME280;23602;51.084;7.090;2023-05-09T00:32:24;100462.81;;;13.66;100.00
37764;BME280;23602;51.084;7.090;2023-05-09T00:34:52;100454.09;;;13.64;100.00
37764;BME280;23602;51.084;7.090;2023-05-09T00:37:18;100450.81;;;13.62;100.00
37764;BME280;23602;51.084;7.090;2023-05-09T00:39:48;100446.28;;;13.56;100.00
37764;BME280;23602;51.084;7.090;2023-05-09T00:42:14;100441.31;;;13.53;100.00
37764;BME280;23602;51.084;7.090;2023-05-09T00:44:48;100448.22;;;13.49;100.00
37764;BME280;23602;51.084;7.090;2023-05-09T00:47:13;100444.44;;;13.50;100.00
37764;BME280;23602;51.084;7.090;2023-05-09T00:49:46;100451.94;;;13.48;100.00
37764;BME280;23602;51.084;7.090;2023-05-09T00:52:12;100458.78;;;13.51;100.00
37764;BME280;23602;51.084;7.090;2023-05-09T00:54:54;100442.81;;;13.49;100.00
37764;BME280;23602;51.084;7.090;2023-05-09T01:03:35;100429.53;;;13.48;100.00
37764;BME280;23602;51.084;7.090;2023-05-09T01:11:40;100424.75;;;13.50;100.00
37764;BME280;23602;51.084;7.090;2023-05-09T01:14:17;100421.41;;;13.48;100.00
37764;BME280;23602;51.084;7.090;2023-05-09T01:26:05;100426.81;;;13.48;100.00
37764;BME280;23602;51.084;7.090;2023-05-09T01:31:20;100427.66;;;13.48;100.00
37764;BME280;23602;51.084;7.090;2023-05-09T01:33:52;100430.34;;;13.48;100.00
37764;BME280;23602;51.084;7.090;2023-05-09T01:39:45;100421.38;;;13.54;100.00
37764;BME280;23602;51.084;7.090;2023-05-09T01:48:06;100413.63;;;13.58;100.00
37764;BME280;23602;51.084;7.090;2023-05-09T01:50:34;100419.88;;;13.58;100.00
37764;BME280;23602;51.084;7.090;2023-05-09T01:53:00;100413.63;;;13.58;100.00
37764;BME280;23602;51.084;7.090;2023-05-09T01:55:26;100411.19;;;13.56;100.00
37764;BME280;23602;51.084;7.090;2023-05-09T01:57:55;100419.03;;;13.58;100.00
37764;BME280;23602;51.084;7.090;2023-05-09T02:00:22;100421.31;;;13.61;100.00
37764;BME280;23602;51.084;7.090;2023-05-09T02:02:48;100420.63;;;13.65;100.00
37764;BME280;23602;51.084;7.090;2023-05-09T02:05:15;100418.75;;;13.66;100.00
37764;BME280;23602;51.084;7.090;2023-05-09T02:10:37;100421.03;;;13.69;100.00
37764;BME280;23602;51.084;7.090;2023-05-09T02:13:05;100422.88;;;13.68;100.00
37764;BME280;23602;51.084;7.090;2023-05-09T02:15:33;100422.06;;;13.68;100.00
37764;BME280;23602;51.084;7.090;2023-05-09T02:17:58;100419.97;;;13.70;100.00
37764;BME280;23602;51.084;7.090;2023-05-09T02:20:27;100421.84;;;13.69;100.00
37764;BME280;23602;51.084;7.090;2023-05-09T02:22:59;100420.59;;;13.72;100.00
37764;BME280;23602;51.084;7.090;2023-05-09T02:25:25;100424.13;;;13.72;100.00
37764;BME280;23602;51.084;7.090;2023-05-09T02:27:50;100423.88;;;13.74;100.00
37764;BME280;23602;51.084;7.090;2023-05-09T02:30:18;100420.13;;;13.75;100.00
37764;BME280;23602;51.084;7.090;2023-05-09T02:32:47;100422.41;;;13.78;100.00
37764;BME280;23602;51.084;7.090;2023-05-09T02:35:14;100412.19;;;13.80;100.00
37764;BME280;23602;51.084;7.090;2023-05-09T02:37:41;100401.38;;;13.80;100.00
37764;BME280;23602;51.084;7.090;2023-05-09T02:40:09;100405.13;;;13.79;100.00
37764;BME280;23602;51.084;7.090;2023-05-09T02:42:40;100390.59;;;13.80;100.00
37764;BME280;23602;51.084;7.090;2023-05-09T02:45:06;100397.03;;;13.79;100.00
37764;BME280;23602;51.084;7.090;2023-05-09T02:47:41;100394.56;;;13.77;100.00
37764;BME280;23602;51.084;7.090;2023-05-09T02:50:07;100398.09;;;13.78;100.00
37764;BME280;23602;51.084;7.090;2023-05-09T02:52:33;100395.97;;;13.80;100.00
37764;BME280;23602;51.084;7.090;2023-05-09T02:55:04;100388.47;;;13.82;100.00
37764;BME280;23602;51.084;7.090;2023-05-09T02:57:29;100385.78;;;13.82;100.00
37764;BME280;23602;51.084;7.090;2023-05-09T03:00:07;100390.78;;;13.78;100.00
37764;BME280;23602;51.084;7.090;2023-05-09T03:02:55;100394.13;;;13.80;100.00
37764;BME280;23602;51.084;7.090;2023-05-09T03:05:24;100376.25;;;13.79;100.00
37764;BME280;23602;51.084;7.090;2023-05-09T03:07:50;100384.94;;;13.81;100.00
37764;BME280;23602;51.084;7.090;2023-05-09T03:10:16;100384.75;;;13.83;100.00
37764;BME280;23602;51.084;7.090;2023-05-09T03:12:41;100377.91;;;13.80;100.00
37764;BME280;23602;51.084;7.090;2023-05-09T03:15:09;100376.25;;;13.79;100.00
37764;BME280;23602;51.084;7.090;2023-05-09T03:17:42;100370.59;;;13.81;100.00
37764;BME280;23602;51.084;7.090;2023-05-09T03:22:50;100376.63;;;13.83;100.00
37764;BME280;23602;51.084;7.090;2023-05-09T03:25:16;100365.81;;;13.83;100.00
37764;BME280;23602;51.084;7.090;2023-05-09T03:27:41;100372.03;;;13.83;100.00
37764;BME280;23602;51.084;7.090;2023-05-09T03:30:09;100369.13;;;13.85;100.00
37764;BME280;23602;51.084;7.090;2023-05-09T03:32:35;100361.22;;;13.83;100.00
37764;BME280;23602;51.084;7.090;2023-05-09T03:35:00;100366.41;;;13.85;100.00
37764;BME280;23602;51.084;7.090;2023-05-09T03:37:34;100373.94;;;13.83;100.00
37764;BME280;23602;51.084;7.090;2023-05-09T03:40:20;100381.81;;;13.84;100.00
37764;BME280;23602;51.084;7.090;2023-05-09T03:43:03;100371.00;;;13.84;100.00
37764;BME280;23602;51.084;7.090;2023-05-09T03:45:29;100369.94;;;13.85;100.00
37764;BME280;23602;51.084;7.090;2023-05-09T03:48:02;100371.59;;;13.86;100.00
37764;BME280;23602;51.084;7.090;2023-05-09T03:50:35;100355.16;;;13.88;100.00
37764;BME280;23602;51.084;7.090;2023-05-09T03:53:03;100350.56;;;13.88;100.00
37764;BME280;23602;51.084;7.090;2023-05-09T03:55:30;100351.25;;;13.84;100.00
37764;BME280;23602;51.084;7.090;2023-05-09T03:57:56;100356.22;;;13.87;100.00
37764;BME280;23602;51.084;7.090;2023-05-09T04:00:21;100347.28;;;13.86;100.00
37764;BME280;23602;51.084;7.090;2023-05-09T04:02:50;100341.66;;;13.88;100.00
37764;BME280;23602;51.084;7.090;2023-05-09T04:05:16;100344.81;;;13.85;100.00
37764;BME280;23602;51.084;7.090;2023-05-09T04:07:41;100343.53;;;13.87;100.00
37764;BME280;23602;51.084;7.090;2023-05-09T04:10:10;100336.25;;;13.88;100.00
37764;BME280;23602;51.084;7.090;2023-05-09T04:12:44;100336.25;;;13.88;100.00
37764;BME280;23602;51.084;7.090;2023-05-09T04:15:17;100330.84;;;13.88;100.00
37764;BME280;23602;51.084;7.090;2023-05-09T04:18:03;100335.78;;;13.91;100.00
37764;BME280;23602;51.084;7.090;2023-05-09T04:20:29;100330.16;;;13.92;100.00
37764;BME280;23602;51.084;7.090;2023-05-09T04:22:55;100332.03;;;13.92;100.00
37764;BME280;23602;51.084;7.090;2023-05-09T04:25:28;100332.88;;;13.92;100.00
37764;BME280;23602;51.084;7.090;2023-05-09T04:27:55;100323.50;;;13.95;100.00
37764;BME280;23602;51.084;7.090;2023-05-09T04:30:20;100323.25;;;13.97;100.00
37764;BME280;23602;51.084;7.090;2023-05-09T04:32:46;100317.84;;;13.97;100.00
37764;BME280;23602;51.084;7.090;2023-05-09T04:35:14;100318.69;;;13.97;100.00
37764;BME280;23602;51.084;7.090;2023-05-09T04:37:39;100315.00;;;13.91;100.00
37764;BME280;23602;51.084;7.090;2023-05-09T04:40:07;100306.91;;;13.91;100.00
37764;BME280;23602;51.084;7.090;2023-05-09T04:42:33;100298.78;;;13.91;100.00
37764;BME280;23602;51.084;7.090;2023-05-09T04:45:01;100300.44;;;13.92;100.00
37764;BME280;23602;51.084;7.090;2023-05-09T04:47:27;100302.91;;;13.94;100.00
37764;BME280;23602;51.084;7.090;2023-05-09T04:49:52;100301.94;;;13.88;100.00
37764;BME280;23602;51.084;7.090;2023-05-09T04:52:20;100301.72;;;13.90;100.00
37764;BME280;23602;51.084;7.090;2023-05-09T04:54:48;100303.00;;;13.87;100.00
37764;BME280;23602;51.084;7.090;2023-05-09T04:57:14;100305.13;;;13.85;100.00
37764;BME280;23602;51.084;7.090;2023-05-09T04:59:40;100294.66;;;13.89;100.00
37764;BME280;23602;51.084;7.090;2023-05-09T05:02:06;100297.97;;;13.91;100.00
37764;BME280;23602;51.084;7.090;2023-05-09T05:04:55;100292.34;;;13.92;100.00
37764;BME280;23602;51.084;7.090;2023-05-09T05:07:20;100293.31;;;13.98;100.00
37764;BME280;23602;51.084;7.090;2023-05-09T05:09:45;100290.81;;;13.97;100.00
37764;BME280;23602;51.084;7.090;2023-05-09T05:12:11;100290.22;;;13.94;100.00
37764;BME280;23602;51.084;7.090;2023-05-09T05:14:39;100295.19;;;13.98;100.00
37764;BME280;23602;51.084;7.090;2023-05-09T05:17:18;100297.88;;;13.98;100.00
37764;BME280;23602;51.084;7.090;2023-05-09T05:19:48;100289.94;;;14.03;100.00
37764;BME280;23602;51.084;7.090;2023-05-09T05:22:14;100289.69;;;14.04;100.00
37764;BME280;23602;51.084;7.090;2023-05-09T05:24:39;100292.19;;;14.06;100.00
37764;BME280;23602;51.084;7.090;2023-05-09T05:27:05;100296.06;;;14.10;100.00
37764;BME280;23602;51.084;7.090;2023-05-09T05:29:33;100293.94;;;14.12;100.00
37764;BME280;23602;51.084;7.090;2023-05-09T05:31:58;100276.31;;;14.09;100.00
37764;BME280;23602;51.084;7.090;2023-05-09T05:34:26;100279.28;;;14.19;100.00
37764;BME280;23602;51.084;7.090;2023-05-09T05:36:54;100278.00;;;14.22;100.00
37764;BME280;23602;51.084;7.090;2023-05-09T05:39:20;100281.66;;;14.27;100.00
37764;BME280;23602;51.084;7.090;2023-05-09T05:41:45;100271.03;;;14.32;100.00
37764;BME280;23602;51.084;7.090;2023-05-09T05:44:10;100271.16;;;14.37;100.00
37764;BME280;23602;51.084;7.090;2023-05-09T05:46:36;100273.16;;;14.42;100.00
37764;BME280;23602;51.084;7.090;2023-05-09T05:49:04;100268.13;;;14.45;100.00
37764;BME280;23602;51.084;7.090;2023-05-09T05:51:29;100263.88;;;14.49;100.00
37764;BME280;23602;51.084;7.090;2023-05-09T05:53:55;100254.28;;;14.53;100.00
37764;BME280;23602;51.084;7.090;2023-05-09T05:56:21;100254.16;;;14.60;100.00
37764;BME280;23602;51.084;7.090;2023-05-09T05:58:47;100252.41;;;14.66;100.00
37764;BME280;23602;51.084;7.090;2023-05-09T06:01:19;100250.06;;;14.69;100.00
37764;BME280;23602;51.084;7.090;2023-05-09T06:03:52;100244.53;;;14.76;100.00
37764;BME280;23602;51.084;7.090;2023-05-09T06:06:25;100238.31;;;14.87;100.00
37764;BME280;23602;51.084;7.090;2023-05-09T06:08:53;100223.94;;;14.98;100.00
37764;BME280;23602;51.084;7.090;2023-05-09T06:11:19;100224.44;;;14.95;100.00
37764;BME280;23602;51.084;7.090;2023-05-09T06:13:45;100217.59;;;15.04;100.00
37764;BME280;23602;51.084;7.090;2023-05-09T06:16:13;100205.22;;;15.08;100.00
37764;BME280;23602;51.084;7.090;2023-05-09T06:18:38;100190.75;;;15.14;100.00
37764;BME280;23602;51.084;7.090;2023-05-09T06:21:04;100184.38;;;15.20;100.00
37764;BME280;23602;51.084;7.090;2023-05-09T06:23:30;100181.91;;;15.30;100.00
37764;BME280;23602;51.084;7.090;2023-05-09T06:25:55;100176.06;;;15.38;100.00
37764;BME280;23602;51.084;7.090;2023-05-09T06:28:21;100163.03;;;15.47;100.00
37764;BME280;23602;51.084;7.090;2023-05-09T06:30:49;100174.06;;;15.57;100.00
37764;BME280;23602;51.084;7.090;2023-05-09T06:33:15;100165.19;;;15.61;100.00
37764;BME280;23602;51.084;7.090;2023-05-09T06:35:43;100140.72;;;15.56;100.00
37764;BME280;23602;51.084;7.090;2023-05-09T06:38:09;100141.06;;;15.60;100.00
37764;BME280;23602;51.084;7.090;2023-05-09T06:40:34;100140.44;;;15.69;100.00
37764;BME280;23602;51.084;7.090;2023-05-09T06:42:59;100136.84;;;15.80;100.00
37764;BME280;23602;51.084;7.090;2023-05-09T06:45:25;100146.56;;;15.93;100.00
37764;BME280;23602;51.084;7.090;2023-05-09T06:47:54;100139.09;;;16.00;100.00
37764;BME280;23602;51.084;7.090;2023-05-09T06:50:21;100127.50;;;16.05;100.00
37764;BME280;23602;51.084;7.090;2023-05-09T06:52:49;100114.88;;;16.10;100.00
37764;BME280;23602;51.084;7.090;2023-05-09T06:55:21;100100.06;;;16.18;100.00
37764;BME280;23602;51.084;7.090;2023-05-09T06:57:49;100105.72;;;16.33;100.00
37764;BME280;23602;51.084;7.090;2023-05-09T07:00:19;100098.38;;;16.50;100.00
37764;BME280;23602;51.084;7.090;2023-05-09T07:02:44;100066.66;;;16.51;100.00
37764;BME280;23602;51.084;7.090;2023-05-09T07:05:21;100065.84;;;16.67;100.00
37764;BME280;23602;51.084;7.090;2023-05-09T07:07:47;100060.28;;;16.78;100.00
37764;BME280;23602;51.084;7.090;2023-05-09T07:10:24;100033.88;;;16.90;100.00
37764;BME280;23602;51.084;7.090;2023-05-09T07:13:04;100018.47;;;17.01;100.00
37764;BME280;23602;51.084;7.090;2023-05-09T07:15:52;100016.66;;;17.06;100.00
37764;BME280;23602;51.084;7.090;2023-05-09T07:18:31;100011.38;;;17.22;100.00
37764;BME280;23602;51.084;7.090;2023-05-09T07:21:01;99992.13;;;17.23;100.00
37764;BME280;23602;51.084;7.090;2023-05-09T07:23:52;99981.09;;;17.35;100.00
37764;BME280;23602;51.084;7.090;2023-05-09T07:26:28;99982.47;;;17.37;100.00
37764;BME280;23602;51.084;7.090;2023-05-09T07:28:54;99976.53;;;17.40;100.00
37764;BME280;23602;51.084;7.090;2023-05-09T07:31:19;99989.38;;;17.50;100.00
37764;BME280;23602;51.084;7.090;2023-05-09T07:33:44;99973.94;;;17.24;100.00
37764;BME280;23602;51.084;7.090;2023-05-09T07:39:22;99975.88;;;17.01;100.00
37764;BME280;23602;51.084;7.090;2023-05-09T07:41:57;99999.53;;;17.06;100.00
37764;BME280;23602;51.084;7.090;2023-05-09T07:44:33;99974.31;;;16.84;100.00
37764;BME280;23602;51.084;7.090;2023-05-09T07:46:59;99971.25;;;16.75;100.00
37764;BME280;23602;51.084;7.090;2023-05-09T07:49:35;99982.63;;;16.99;100.00
37764;BME280;23602;51.084;7.090;2023-05-09T07:52:17;99970.16;;;16.98;100.00
37764;BME280;23602;51.084;7.090;2023-05-09T07:55:03;99965.56;;;17.03;100.00
37764;BME280;23602;51.084;7.090;2023-05-09T07:57:46;99974.78;;;17.29;100.00
37764;BME280;23602;51.084;7.090;2023-05-09T08:00:16;99975.50;;;17.46;100.00
37764;BME280;23602;51.084;7.090;2023-05-09T08:02:54;99957.41;;;17.57;100.00
37764;BME280;23602;51.084;7.090;2023-05-09T08:05:29;99950.88;;;17.53;100.00
37764;BME280;23602;51.084;7.090;2023-05-09T08:07:57;99942.94;;;17.51;100.00
37764;BME280;23602;51.084;7.090;2023-05-09T08:10:51;99928.50;;;17.46;100.00
37764;BME280;23602;51.084;7.090;2023-05-09T08:13:18;99931.06;;;17.57;100.00
37764;BME280;23602;51.084;7.090;2023-05-09T08:15:47;99905.81;;;17.62;100.00
37764;BME280;23602;51.084;7.090;2023-05-09T08:18:15;99928.81;;;17.86;100.00
37764;BME280;23602;51.084;7.090;2023-05-09T08:20:51;99900.00;;;17.85;100.00
37764;BME280;23602;51.084;7.090;2023-05-09T08:23:24;99893.66;;;17.75;100.00
37764;BME280;23602;51.084;7.090;2023-05-09T08:25:59;99891.44;;;17.61;100.00
37764;BME280;23602;51.084;7.090;2023-05-09T08:31:22;99894.25;;;17.77;100.00
37764;BME280;23602;51.084;7.090;2023-05-09T08:33:51;99872.28;;;17.88;100.00
37764;BME280;23602;51.084;7.090;2023-05-09T08:36:19;99872.13;;;18.10;100.00
37764;BME280;23602;51.084;7.090;2023-05-09T08:38:47;99877.41;;;18.42;100.00
37764;BME280;23602;51.084;7.090;2023-05-09T08:41:26;99875.66;;;19.03;100.00
37764;BME280;23602;51.084;7.090;2023-05-09T08:44:27;99846.81;;;19.02;100.00
37764;BME280;23602;51.084;7.090;2023-05-09T08:46:59;99852.00;;;19.38;100.00
37764;BME280;23602;51.084;7.090;2023-05-09T08:49:25;99843.53;;;19.65;100.00
37764;BME280;23602;51.084;7.090;2023-05-09T08:52:11;99837.41;;;19.93;100.00
37764;BME280;23602;51.084;7.090;2023-05-09T08:54:37;99838.25;;;19.89;100.00
37764;BME280;23602;51.084;7.090;2023-05-09T08:57:03;99835.75;;;20.02;100.00
37764;BME280;23602;51.084;7.090;2023-05-09T08:59:42;99837.53;;;19.48;100.00
37764;BME280;23602;51.084;7.090;2023-05-09T09:02:12;99826.09;;;19.16;100.00
37764;BME280;23602;51.084;7.090;2023-05-09T09:04:38;99825.84;;;19.52;100.00
37764;BME280;23602;51.084;7.090;2023-05-09T09:07:13;99829.03;;;19.80;100.00
37764;BME280;23602;51.084;7.090;2023-05-09T09:09:50;99822.47;;;19.81;100.00
37764;BME280;23602;51.084;7.090;2023-05-09T09:12:31;99818.47;;;20.22;100.00
37764;BME280;23602;51.084;7.090;2023-05-09T09:18:10;99810.72;;;20.49;100.00
37764;BME280;23602;51.084;7.090;2023-05-09T09:23:38;99790.09;;;20.28;100.00
37764;BME280;23602;51.084;7.090;2023-05-09T09:26:13;99796.50;;;20.52;100.00
37764;BME280;23602;51.084;7.090;2023-05-09T09:28:51;99794.69;;;20.76;100.00
37764;BME280;23602;51.084;7.090;2023-05-09T09:31:19;99782.22;;;20.65;100.00
37764;BME280;23602;51.084;7.090;2023-05-09T09:33:47;99779.88;;;20.83;100.00
37764;BME280;23602;51.084;7.090;2023-05-09T09:36:32;99774.16;;;20.84;100.00
37764;BME280;23602;51.084;7.090;2023-05-09T09:39:03;99766.53;;;20.42;100.00
37764;BME280;23602;51.084;7.090;2023-05-09T09:42:03;99775.84;;;20.41;100.00
37764;BME280;23602;51.084;7.090;2023-05-09T09:44:34;99781.53;;;20.84;100.00
37764;BME280;23602;51.084;7.090;2023-05-09T09:47:17;99771.56;;;20.69;100.00
37764;BME280;23602;51.084;7.090;2023-05-09T09:49:45;99769.56;;;20.41;100.00
37764;BME280;23602;51.084;7.090;2023-05-09T09:52:30;99763.28;;;20.40;100.00
37764;BME280;23602;51.084;7.090;2023-05-09T09:55:05;99768.66;;;19.96;100.00
37764;BME280;23602;51.084;7.090;2023-05-09T09:57:36;99757.97;;;20.10;100.00
37764;BME280;23602;51.084;7.090;2023-05-09T10:00:10;99754.38;;;20.25;100.00
37764;BME280;23602;51.084;7.090;2023-05-09T10:02:54;99752.38;;;20.40;100.00
37764;BME280;23602;51.084;7.090;2023-05-09T10:05:20;99758.63;;;20.79;100.00
37764;BME280;23602;51.084;7.090;2023-05-09T10:10:34;99735.34;;;20.87;100.00
37764;BME280;23602;51.084;7.090;2023-05-09T10:16:14;99738.31;;;20.91;100.00
37764;BME280;23602;51.084;7.090;2023-05-09T10:18:39;99739.06;;;20.67;100.00
37764;BME280;23602;51.084;7.090;2023-05-09T10:21:06;99731.19;;;20.61;100.00
37764;BME280;23602;51.084;7.090;2023-05-09T10:23:36;99730.28;;;20.37;100.00
37764;BME280;23602;51.084;7.090;2023-05-09T10:26:28;99724.88;;;20.22;100.00
37764;BME280;23602;51.084;7.090;2023-05-09T10:29:01;99721.16;;;20.07;100.00
37764;BME280;23602;51.084;7.090;2023-05-09T10:34:52;99712.50;;;20.39;100.00
37764;BME280;23602;51.084;7.090;2023-05-09T10:37:36;99706.47;;;20.42;100.00
37764;BME280;23602;51.084;7.090;2023-05-09T10:40:04;99708.50;;;20.22;100.00
37764;BME280;23602;51.084;7.090;2023-05-09T10:42:42;99699.72;;;20.35;100.00
37764;BME280;23602;51.084;7.090;2023-05-09T10:45:10;99700.88;;;20.62;100.00
37764;BME280;23602;51.084;7.090;2023-05-09T10:47:47;99691.84;;;20.67;100.00
37764;BME280;23602;51.084;7.090;2023-05-09T10:50:22;99683.19;;;20.55;100.00
37764;BME280;23602;51.084;7.090;2023-05-09T10:55:58;99682.28;;;20.31;100.00
37764;BME280;23602;51.084;7.090;2023-05-09T10:58:34;99675.06;;;20.06;100.00
37764;BME280;23602;51.084;7.090;2023-05-09T11:01:05;99679.13;;;20.13;100.00
37764;BME280;23602;51.084;7.090;2023-05-09T11:09:21;99669.06;;;19.60;100.00
37764;BME280;23602;51.084;7.090;2023-05-09T11:11:51;99666.47;;;19.84;100.00
37764;BME280;23602;51.084;7.090;2023-05-09T11:17:02;99662.72;;;20.18;100.00
37764;BME280;23602;51.084;7.090;2023-05-09T11:27:49;99644.44;;;20.14;100.00
37764;BME280;23602;51.084;7.090;2023-05-09T11:30:19;99643.59;;;20.24;100.00
37764;BME280;23602;51.084;7.090;2023-05-09T11:33:08;99636.84;;;20.11;100.00
37764;BME280;23602;51.084;7.090;2023-05-09T11:38:44;99639.13;;;19.94;100.00
37764;BME280;23602;51.084;7.090;2023-05-09T11:41:09;99620.91;;;19.89;100.00
37764;BME280;23602;51.084;7.090;2023-05-09T11:43:35;99613.00;;;20.22;100.00
37764;BME280;23602;51.084;7.090;2023-05-09T11:49:08;99607.88;;;20.54;100.00
37764;BME280;23602;51.084;7.090;2023-05-09T11:51:37;99601.19;;;20.65;100.00
37764;BME280;23602;51.084;7.090;2023-05-09T11:54:03;99596.94;;;21.06;100.00
37764;BME280;23602;51.084;7.090;2023-05-09T11:56:43;99592.03;;;21.27;100.00
37764;BME280;23602;51.084;7.090;2023-05-09T11:59:09;99589.38;;;21.22;100.00
37764;BME280;23602;51.084;7.090;2023-05-09T12:01:37;99591.22;;;21.26;100.00
37764;BME280;23602;51.084;7.090;2023-05-09T12:04:12;99582.75;;;21.28;100.00
37764;BME280;23602;51.084;7.090;2023-05-09T12:06:48;99580.00;;;21.28;100.00
37764;BME280;23602;51.084;7.090;2023-05-09T12:09:15;99579.06;;;20.90;100.00
37764;BME280;23602;51.084;7.090;2023-05-09T12:11:51;99565.78;;;20.55;100.00
37764;BME280;23602;51.084;7.090;2023-05-09T12:14:32;99562.16;;;20.64;100.00
37764;BME280;23602;51.084;7.090;2023-05-09T12:16:58;99566.59;;;20.27;100.00
37764;BME280;23602;51.084;7.090;2023-05-09T12:19:37;99561.75;;;20.24;100.00
37764;BME280;23602;51.084;7.090;2023-05-09T12:22:12;99565.13;;;20.39;100.00
37764;BME280;23602;51.084;7.090;2023-05-09T12:24:50;99565.69;;;20.41;100.00
37764;BME280;23602;51.084;7.090;2023-05-09T12:27:28;99549.41;;;20.31;100.00
37764;BME280;23602;51.084;7.090;2023-05-09T12:29:54;99545.41;;;20.47;100.00
37764;BME280;23602;51.084;7.090;2023-05-09T12:32:20;99540.91;;;20.61;100.00
37764;BME280;23602;51.084;7.090;2023-05-09T12:34:47;99546.25;;;20.71;100.00
37764;BME280;23602;51.084;7.090;2023-05-09T12:37:14;99544.47;;;20.80;100.00
37764;BME280;23602;51.084;7.090;2023-05-09T12:39:42;99540.31;;;20.64;100.00
37764;BME280;23602;51.084;7.090;2023-05-09T12:42:15;99536.63;;;20.50;100.00
37764;BME280;23602;51.084;7.090;2023-05-09T12:44:41;99537.66;;;20.31;100.00
37764;BME280;23602;51.084;7.090;2023-05-09T12:47:25;99531.19;;;20.16;100.00
37764;BME280;23602;51.084;7.090;2023-05-09T12:49:56;99535.31;;;20.14;100.00
37764;BME280;23602;51.084;7.090;2023-05-09T12:52:32;99526.41;;;20.37;100.00
37764;BME280;23602;51.084;7.090;2023-05-09T12:55:18;99525.22;;;20.72;100.00
37764;BME280;23602;51.084;7.090;2023-05-09T12:57:56;99523.22;;;20.77;100.00
37764;BME280;23602;51.084;7.090;2023-05-09T13:00:22;99519.28;;;20.65;100.00
37764;BME280;23602;51.084;7.090;2023-05-09T13:02:50;99520.97;;;20.61;100.00
37764;BME280;23602;51.084;7.090;2023-05-09T13:05:17;99519.00;;;20.66;100.00
37764;BME280;23602;51.084;7.090;2023-05-09T13:07:55;99515.44;;;20.42;100.00
37764;BME280;23602;51.084;7.090;2023-05-09T13:10:24;99508.69;;;20.35;100.00
37764;BME280;23602;51.084;7.090;2023-05-09T13:12:57;99500.44;;;20.40;100.00
37764;BME280;23602;51.084;7.090;2023-05-09T13:15:30;99498.72;;;20.49;100.00
37764;BME280;23602;51.084;7.090;2023-05-09T13:18:05;99492.09;;;20.31;100.00
37764;BME280;23602;51.084;7.090;2023-05-09T13:20:41;99485.94;;;20.15;100.00
37764;BME280;23602;51.084;7.090;2023-05-09T13:23:09;99470.59;;;20.25;100.00
37764;BME280;23602;51.084;7.090;2023-05-09T13:25:37;99481.53;;;20.19;100.00
37764;BME280;23602;51.084;7.090;2023-05-09T13:28:04;99476.81;;;20.30;100.00
37764;BME280;23602;51.084;7.090;2023-05-09T13:30:40;99471.88;;;20.32;100.00
37764;BME280;23602;51.084;7.090;2023-05-09T13:33:16;99467.28;;;20.28;100.00
37764;BME280;23602;51.084;7.090;2023-05-09T13:35:50;99473.63;;;20.18;100.00
37764;BME280;23602;51.084;7.090;2023-05-09T13:38:26;99461.91;;;20.17;100.00
37764;BME280;23602;51.084;7.090;2023-05-09T13:41:10;99457.47;;;20.27;100.00
37764;BME280;23602;51.084;7.090;2023-05-09T13:43:43;99453.19;;;20.15;100.00
37764;BME280;23602;51.084;7.090;2023-05-09T13:46:12;99453.47;;;20.14;100.00
37764;BME280;23602;51.084;7.090;2023-05-09T13:48:48;99456.44;;;20.17;100.00
37764;BME280;23602;51.084;7.090;2023-05-09T13:51:19;99450.63;;;20.00;100.00
37764;BME280;23602;51.084;7.090;2023-05-09T13:54:18;99452.50;;;20.05;100.00
37764;BME280;23602;51.084;7.090;2023-05-09T13:56:53;99444.63;;;19.98;100.00
37764;BME280;23602;51.084;7.090;2023-05-09T13:59:25;99440.03;;;19.94;100.00
37764;BME280;23602;51.084;7.090;2023-05-09T14:02:05;99439.78;;;19.95;100.00
37764;BME280;23602;51.084;7.090;2023-05-09T14:04:31;99433.31;;;19.86;100.00
37764;BME280;23602;51.084;7.090;2023-05-09T14:07:07;99432.44;;;19.91;100.00
37764;BME280;23602;51.084;7.090;2023-05-09T14:09:45;99429.75;;;19.86;100.00
37764;BME280;23602;51.084;7.090;2023-05-09T14:12:13;99429.09;;;19.99;100.00
37764;BME280;23602;51.084;7.090;2023-05-09T14:14:56;99423.53;;;20.09;100.00
37764;BME280;23602;51.084;7.090;2023-05-09T14:17:29;99413.44;;;20.09;100.00
37764;BME280;23602;51.084;7.090;2023-05-09T14:20:06;99419.13;;;20.13;100.00
37764;BME280;23602;51.084;7.090;2023-05-09T14:22:37;99410.44;;;20.11;100.00
37764;BME280;23602;51.084;7.090;2023-05-09T14:25:02;99406.63;;;20.07;100.00
37764;BME280;23602;51.084;7.090;2023-05-09T14:27:28;99413.47;;;20.04;100.00
37764;BME280;23602;51.084;7.090;2023-05-09T14:29:58;99405.47;;;19.89;100.00
37764;BME280;23602;51.084;7.090;2023-05-09T14:32:41;99411.47;;;19.86;100.00
37764;BME280;23602;51.084;7.090;2023-05-09T14:35:13;99405.50;;;19.84;100.00